Ruston, LA

2:27 PM CDT on June 27, 2017 (GMT -0500)
Ruston Regional

Weather History for KRSN - March, 2013

Change the Weather History Date:

Friday, March 8, 2013

  Actual Average Record
Temperature  
Mean Temperature 51 °F -  
Max Temperature 70 °F 68 °F 85 °F (1974)
Min Temperature 32 °F 41 °F 22 °F (1989)
Degree Days  
Heating Degree Days 14    
Growing Degree Days 1 (Base 50)    
Moisture  
Dew Point 33 °F    
Average Humidity 56    
Maximum Humidity 100    
Minimum Humidity 19    
Precipitation  
Precipitation 0.00 in - - ()
Sea Level Pressure  
Sea Level Pressure 30.26 in    
Wind  
Wind Speed 2 mph (ESE)    
Max Wind Speed 10 mph    
Max Gust Speed 16 mph    
Visibility 10 miles    
Events      
Averages and records for this station are not official NWS values.
T = Trace of Precipitation, MM = Missing Value Source: NWS Daily Summary

Daily Weather History Graph

Daily Weather History Graph

Search for Another Location

Airport or City:

Trip Planner

Search our weather history database for the weather conditions in past years. The results will help you decide how hot, cold, wet, or windy it might be!

Date:

Astronomy

Mar. 08, 2013 Rise Set
Actual Time 6:29 AM CST 6:13 PM CST
Civil Twilight 6:04 AM CST 6:37 PM CST
Nautical Twilight 5:36 AM CST 7:06 PM CST
Astronomical Twilight 5:07 AM CST 7:34 PM CST
Moon 4:04 AM CST (3/8) 3:16 PM CST (3/8)
Length of Visible Light 12h 33m
Length of Day
11h 44m
Waning Crescent, 11% of the Moon is Illuminated
Mar 8
Waning Crescent
Mar 11
New
Mar 19
First Quarter
Mar 27
Full
Apr 2
Last Quarter

Hourly Weather History & Observations

Time (CST) Temp. Windchill Dew Point Humidity Pressure Visibility Wind Dir Wind Speed Gust Speed Precip Events Conditions
12:15 AM 36.5 °F - 36.5 °F 100% 30.29 in 10.0 mi Calm Calm - N/A   Clear
12:35 AM 37.0 °F - 37.0 °F 100% 30.28 in 10.0 mi Calm Calm - N/A   Clear
12:55 AM 35.8 °F - 35.8 °F 100% 30.28 in 10.0 mi Calm Calm - N/A   Clear
1:15 AM 35.8 °F - 35.8 °F 100% 30.28 in 10.0 mi Calm Calm - N/A   Clear
1:35 AM 35.2 °F - 35.2 °F 100% 30.29 in 10.0 mi Calm Calm - N/A   Clear
1:55 AM 35.4 °F - 35.4 °F 100% 30.27 in 10.0 mi Calm Calm - N/A   Clear
2:15 AM 34.7 °F - 34.7 °F 100% 30.27 in 10.0 mi Calm Calm - N/A   Clear
2:35 AM 34.2 °F - 34.2 °F 100% 30.27 in 10.0 mi Calm Calm - N/A   Clear
2:55 AM 34.9 °F - 34.9 °F 100% 30.26 in 10.0 mi Calm Calm - N/A   Clear
3:15 AM 34.9 °F - 34.9 °F 100% 30.26 in 10.0 mi Calm Calm - N/A   Clear
3:35 AM 33.6 °F - 33.6 °F 100% 30.26 in 10.0 mi Calm Calm - N/A   Clear
3:55 AM 34.3 °F - 34.3 °F 100% 30.27 in 7.0 mi Calm Calm - N/A   Clear
4:15 AM 34.5 °F - 34.5 °F 100% 30.27 in 10.0 mi Calm Calm - N/A   Clear
4:35 AM 33.6 °F - 33.6 °F 100% 30.28 in 7.0 mi Calm Calm - N/A   Clear
4:55 AM 33.3 °F - 33.3 °F 100% 30.28 in 7.0 mi Calm Calm - N/A   Clear
5:15 AM 32.5 °F - 32.5 °F 100% 30.29 in 7.0 mi Calm Calm - N/A   Clear
5:35 AM 34.9 °F - 34.9 °F 100% 30.29 in 10.0 mi Calm Calm - N/A   Clear
5:55 AM 32.7 °F - 32.7 °F 100% 30.30 in 5.0 mi Calm Calm - N/A   Clear
6:15 AM 32.9 °F - 32.9 °F 100% 30.31 in 7.0 mi Calm Calm - N/A   Clear
6:35 AM 32.7 °F - 32.7 °F 100% 30.31 in 7.0 mi Calm Calm - N/A   Clear
6:55 AM 33.8 °F - 33.8 °F 100% 30.31 in 5.0 mi Calm Calm - N/A   Clear
7:15 AM 36.1 °F - 36.1 °F 100% 30.32 in 10.0 mi Calm Calm - N/A   Clear
7:35 AM 39.9 °F - 39.4 °F 98% 30.33 in 10.0 mi Calm Calm - N/A   Clear
7:55 AM 44.2 °F 41.8 °F 36.9 °F 75% 30.33 in 10.0 mi ENE 4.6 mph - N/A   Clear
8:15 AM 46.0 °F 43.9 °F 36.7 °F 70% 30.34 in 10.0 mi East 4.6 mph - N/A   Clear
8:55 AM 52.5 °F - 35.4 °F 52% 30.34 in 10.0 mi East 4.6 mph - N/A   Clear
9:15 AM 53.8 °F - 34.9 °F 49% 30.34 in 10.0 mi ESE 3.5 mph - N/A   Clear
9:35 AM 56.5 °F - 35.2 °F 45% 30.34 in 10.0 mi ESE 3.5 mph - N/A   Clear
9:55 AM 58.1 °F - 36.0 °F 44% 30.34 in 10.0 mi ENE 3.5 mph - N/A   Clear
10:15 AM 59.7 °F - 34.7 °F 39% 30.34 in 10.0 mi ENE 5.8 mph - N/A   Clear
10:35 AM 61.5 °F - 33.4 °F 35% 30.34 in 10.0 mi ENE 5.8 mph - N/A   Clear
10:55 AM 62.6 °F - 31.6 °F 31% 30.34 in 10.0 mi ESE 5.8 mph - N/A   Clear
11:15 AM 64.6 °F - 31.5 °F 29% 30.33 in 10.0 mi East 3.5 mph - N/A   Clear
11:35 AM 65.5 °F - 30.9 °F 27% 30.32 in 10.0 mi East 6.9 mph - N/A   Clear
11:55 AM 66.7 °F - 30.9 °F 26% 30.32 in 10.0 mi East 5.8 mph - N/A   Clear
12:15 PM 67.1 °F - 29.8 °F 25% 30.31 in 10.0 mi Calm Calm - N/A   Clear
12:35 PM 67.8 °F - 28.6 °F 23% 30.29 in 10.0 mi ESE 5.8 mph - N/A   Clear
12:55 PM 68.4 °F - 28.9 °F 23% 30.28 in 10.0 mi East 5.8 mph - N/A   Clear
1:15 PM 68.4 °F - 28.0 °F 22% 30.27 in 10.0 mi Calm Calm - N/A   Clear
1:35 PM 69.3 °F - 28.6 °F 22% 30.26 in 10.0 mi East 4.6 mph - N/A   Clear
1:55 PM 69.4 °F - 28.2 °F 21% 30.26 in 10.0 mi Calm Calm - N/A   Clear
2:15 PM 68.2 °F - 28.0 °F 22% 30.25 in 10.0 mi Calm Calm - N/A   Clear
2:35 PM 70.9 °F - 29.5 °F 22% 30.24 in 7.0 mi East 6.9 mph - N/A   Clear
2:55 PM 70.3 °F - 28.4 °F 21% 30.23 in 10.0 mi SSE 4.6 mph - N/A   Clear
3:15 PM 70.7 °F - 26.4 °F 19% 30.22 in 10.0 mi SSE 6.9 mph - N/A   Clear
3:35 PM 70.7 °F - 25.9 °F 19% 30.21 in 10.0 mi SE 4.6 mph - N/A   Clear
3:55 PM 70.0 °F - 26.8 °F 20% 30.20 in 10.0 mi SE 6.9 mph - N/A   Clear
4:15 PM 70.7 °F - 27.9 °F 20% 30.19 in 10.0 mi ESE 6.9 mph - N/A   Clear
4:55 PM 69.1 °F - 29.5 °F 23% 30.19 in 10.0 mi East 4.6 mph - N/A   Clear
5:15 PM 67.5 °F - 30.7 °F 25% 30.19 in 10.0 mi ESE 3.5 mph - N/A   Clear
5:35 PM 66.6 °F - 30.0 °F 26% 30.19 in 10.0 mi ESE 6.9 mph - N/A   Clear
5:55 PM 64.9 °F - 30.2 °F 27% 30.20 in 10.0 mi SE 3.5 mph - N/A   Clear
6:15 PM 63.9 °F - 30.7 °F 29% 30.21 in 10.0 mi Calm Calm - N/A   Clear
6:35 PM 59.7 °F - 33.8 °F 38% 30.21 in 10.0 mi SE 4.6 mph - N/A   Clear
6:55 PM 58.6 °F - 35.2 °F 42% 30.21 in 10.0 mi Calm Calm - N/A   Clear
7:15 PM 56.1 °F - 36.7 °F 48% 30.21 in 10.0 mi Calm Calm - N/A   Clear
7:35 PM 59.2 °F - 34.2 °F 39% 30.21 in 10.0 mi SE 3.5 mph - N/A   Clear
7:55 PM 60.3 °F - 33.8 °F 37% 30.21 in 10.0 mi SE 3.5 mph - N/A   Clear
8:15 PM 60.8 °F - 33.1 °F 35% 30.21 in 10.0 mi SE 3.5 mph - N/A   Clear
8:35 PM 60.1 °F - 34.0 °F 38% 30.21 in 10.0 mi South 3.5 mph - N/A   Clear
8:55 PM 59.0 °F - 34.7 °F 40% 30.20 in 10.0 mi SE 4.6 mph - N/A   Clear
9:15 PM 58.6 °F - 35.1 °F 41% 30.19 in 10.0 mi SE 4.6 mph - N/A   Clear
9:55 PM 57.9 °F - 36.3 °F 44% 30.19 in 10.0 mi Calm Calm - N/A   Clear
10:15 PM 57.2 °F - 37.4 °F 48% 30.19 in 10.0 mi South 3.5 mph - N/A   Mostly Cloudy
10:35 PM 57.0 °F - 37.0 °F 47% 30.19 in 10.0 mi SSE 4.6 mph - N/A   Mostly Cloudy
10:55 PM 58.8 °F - 34.9 °F 41% 30.17 in 10.0 mi SE 5.8 mph - N/A   Mostly Cloudy
11:15 PM 59.0 °F - 34.5 °F 40% 30.15 in 10.0 mi ESE 8.1 mph - N/A   Mostly Cloudy
11:35 PM 59.9 °F - 33.8 °F 38% 30.12 in 10.0 mi SE 9.2 mph - N/A   Scattered Clouds
11:55 PM 60.3 °F - 34.0 °F 37% 30.12 in 10.0 mi SSE 10.4 mph 16.1 mph N/A   Clear